Time;durP1;ratioP1;P1;durP2;ratioP2;P2;SDS_P1;SDS_P2;PMS_P1;PMS_P2;Temp;Humidity;BMP_temperature;BMP_pressure;BME280_temperature;BME280_humidity;BME280_pressure;Samples;Min_cycle;Max_cycle;Signal;HPM_P1;HPM_P2
2022/09/07 00:01:59;;;;;;;6.50;2.83;;;;;;;20.96;72.52;101348.59;5061075;28;20048;-45
2022/09/07 00:04:24;;;;;;;5.68;2.63;;;;;;;20.98;72.88;101343.34;5069774;28;20566;-46
2022/09/07 00:06:49;;;;;;;4.70;2.50;;;;;;;20.82;72.82;101332.13;5068395;28;20032;-47
2022/09/07 00:09:15;;;;;;;5.60;2.70;;;;;;;20.64;73.41;101335.72;5068664;28;20096;-47
2022/09/07 00:11:40;;;;;;;4.03;2.40;;;;;;;20.75;73.52;101340.88;5063497;28;20051;-46
2022/09/07 00:14:06;;;;;;;5.22;2.60;;;;;;;20.75;73.63;101352.22;5069138;28;20035;-47
2022/09/07 00:16:32;;;;;;;5.70;2.70;;;;;;;20.82;73.55;101342.59;5065880;28;20029;-46
2022/09/07 00:19:00;;;;;;;5.05;2.55;;;;;;;20.74;73.78;101331.31;5068818;28;20020;-47
2022/09/07 00:21:26;;;;;;;5.68;2.70;;;;;;;20.67;73.42;101320.03;5063568;28;20039;-47
2022/09/07 00:23:53;;;;;;;4.38;2.45;;;;;;;20.72;73.21;101307.78;5068883;28;20032;-46
2022/09/07 00:26:22;;;;;;;5.32;2.50;;;;;;;20.69;73.30;101293.88;5069826;28;20444;-48
2022/09/07 00:28:47;;;;;;;;;;;;;;;20.97;71.24;101290.19;5070756;28;20531;-45
2022/09/07 00:31:16;;;;;;;4.03;2.47;;;;;;;20.59;73.43;101293.09;5063085;28;19924;-47
2022/09/07 00:33:42;;;;;;;;;;;;;;;20.92;71.27;101278.88;5062209;28;20154;-45
2022/09/07 00:36:07;;;;;;;4.88;2.63;;;;;;;20.62;72.81;101272.16;5069273;28;20364;-45
2022/09/07 00:38:33;;;;;;;5.65;2.30;;;;;;;20.62;73.31;101279.97;5069025;28;20484;-46
2022/09/07 00:40:58;;;;;;;5.63;2.80;;;;;;;20.58;72.96;101281.78;5062934;28;20114;-47
2022/09/07 00:43:31;;;;;;;5.13;2.90;;;;;;;20.58;73.28;101289.59;5067863;28;20517;-46
2022/09/07 00:45:56;;;;;;;4.45;2.65;;;;;;;20.53;73.47;101290.50;5070488;28;20449;-46
2022/09/07 00:48:28;;;;;;;5.63;3.17;;;;;;;20.46;73.66;101281.84;5067781;28;20031;-46
2022/09/07 00:50:58;;;;;;;4.95;2.60;;;;;;;20.43;73.86;101273.97;5068168;28;20036;-47
2022/09/07 00:53:29;;;;;;;5.68;2.78;;;;;;;20.53;73.46;101274.84;5066066;28;20071;-47
2022/09/07 00:55:56;;;;;;;4.85;2.83;;;;;;;20.33;73.48;101267.97;5069430;28;20049;-45
2022/09/07 00:58:22;;;;;;;4.25;3.00;;;;;;;20.29;74.13;101255.78;5067883;28;20083;-45
2022/09/07 01:00:49;;;;;;;5.25;2.70;;;;;;;20.36;73.82;101248.78;5071221;28;20052;-46
2022/09/07 01:03:27;;;;;;;5.18;2.78;;;;;;;20.45;73.05;101256.59;5061397;28;20036;-47
2022/09/07 01:05:56;;;;;;;5.53;2.95;;;;;;;20.36;73.34;101246.16;5064059;22;20057;-67
2022/09/07 01:08:22;;;;;;;;;;;;;;;20.66;71.24;101244.25;5015493;28;20592;-68
2022/09/07 01:10:47;;;;;;;4.20;2.78;;;;;;;20.32;72.98;101253.16;5000549;28;19951;-71
2022/09/07 01:13:14;;;;;;;3.78;2.65;;;;;;;20.30;72.94;101246.19;5017434;28;20033;-72
2022/09/07 01:15:52;;;;;;;3.90;2.72;;;;;;;20.27;73.67;101254.94;5019912;28;20534;-72
2022/09/07 01:18:36;;;;;;;5.68;3.00;;;;;;;20.26;73.21;101245.38;5013771;28;20034;-71
2022/09/07 01:21:24;;;;;;;5.40;2.70;;;;;;;20.32;73.01;101247.06;4999571;28;20045;-71
2022/09/07 01:23:52;;;;;;;3.58;2.53;;;;;;;20.16;74.11;101238.47;4997104;28;20026;-71
2022/09/07 01:26:37;;;;;;;4.15;2.92;;;;;;;20.13;74.18;101235.84;5000823;28;20119;-72
2022/09/07 01:29:18;;;;;;;4.95;2.60;;;;;;;20.11;74.13;101237.59;4983050;28;20030;-72
2022/09/07 01:32:04;;;;;;;4.20;2.53;;;;;;;20.09;74.22;101248.06;5000770;28;20026;-71
2022/09/07 01:34:30;;;;;;;4.85;2.70;;;;;;;20.01;74.58;101254.19;4988088;28;20034;-72
2022/09/07 01:37:13;;;;;;;4.53;2.50;;;;;;;20.04;74.89;101252.44;4979766;28;20033;-71
2022/09/07 01:40:07;;;;;;;4.35;2.33;;;;;;;20.17;73.88;101250.63;5000275;28;20439;-72
2022/09/07 01:42:47;;;;;;;2.65;2.28;;;;;;;20.10;74.28;101246.31;4962470;28;20529;-71
2022/09/07 01:45:17;;;;;;;4.20;2.45;;;;;;;20.05;75.33;101248.09;4999328;28;20030;-71
2022/09/07 01:47:47;;;;;;;4.10;2.47;;;;;;;20.03;74.86;101242.00;4979310;28;20030;-71
2022/09/07 01:50:20;;;;;;;3.58;2.50;;;;;;;20.01;75.06;101239.38;4984392;28;20026;-71
2022/09/07 01:53:30;;;;;;;2.97;2.30;;;;;;;20.04;74.87;101234.16;4999909;28;20083;-72
2022/09/07 01:56:04;;;;;;;4.72;2.67;;;;;;;20.04;74.59;101236.78;4921775;29;20122;-71
2022/09/07 01:58:33;;;;;;;3.35;2.38;;;;;;;19.92;75.22;101235.97;4988514;28;20061;-71
2022/09/07 02:01:08;;;;;;;3.28;2.40;;;;;;;20.05;74.86;101235.03;5000067;28;20112;-71
2022/09/07 02:03:43;;;;;;;2.80;2.47;;;;;;;20.00;74.82;101240.25;4996381;28;20171;-71
2022/09/07 02:06:19;;;;;;;4.00;2.70;;;;;;;20.06;75.04;101249.81;4992003;28;20046;-71
2022/09/07 02:08:51;;;;;;;2.80;2.30;;;;;;;20.02;75.54;101255.91;4998601;28;20037;-71
2022/09/07 02:11:20;;;;;;;4.13;2.50;;;;;;;20.02;75.16;101261.13;5000422;28;20042;-71
2022/09/07 02:13:55;;;;;;;4.78;2.60;;;;;;;20.03;75.27;101252.44;4998835;28;20030;-71
2022/09/07 02:16:26;;;;;;;3.70;2.53;;;;;;;19.92;75.81;101251.63;4996058;28;20026;-71
2022/09/07 02:19:07;;;;;;;2.75;2.30;;;;;;;19.95;75.14;101244.63;4981467;28;20029;-71
2022/09/07 02:21:38;;;;;;;3.50;2.20;;;;;;;19.94;75.50;101248.13;4995773;28;20081;-71
2022/09/07 02:24:10;;;;;;;4.85;2.38;;;;;;;19.95;75.68;101249.00;5000200;28;20040;-71
2022/09/07 02:26:39;;;;;;;3.08;2.40;;;;;;;19.95;76.02;101238.53;4998605;28;20029;-71
2022/09/07 02:29:04;;;;;;;5.93;2.60;;;;;;;19.90;76.05;101228.16;4982212;28;20022;-71
2022/09/07 02:31:30;;;;;;;5.00;2.53;;;;;;;19.96;75.28;101233.34;4995463;28;20156;-71
2022/09/07 02:33:55;;;;;;;3.40;2.58;;;;;;;19.90;75.32;101230.75;4998504;28;20101;-71
2022/09/07 02:36:25;;;;;;;3.45;2.53;;;;;;;19.92;76.33;101235.97;4957775;28;20099;-71
2022/09/07 02:38:51;;;;;;;3.28;2.63;;;;;;;19.75;76.37;101236.91;4998172;28;20033;-71
2022/09/07 02:41:38;;;;;;;4.10;2.63;;;;;;;19.83;75.64;101236.84;4998775;28;20045;-71
2022/09/07 02:44:18;;;;;;;3.03;2.45;;;;;;;19.77;75.93;101236.88;4997601;28;20057;-71
2022/09/07 02:47:00;;;;;;;4.35;2.72;;;;;;;19.69;76.04;101239.53;4997200;28;20156;-71
2022/09/07 02:49:37;;;;;;;4.53;2.50;;;;;;;19.64;76.00;101233.44;4996644;28;20175;-71
2022/09/07 02:52:20;;;;;;;5.85;2.95;;;;;;;19.65;76.39;101234.31;4980153;28;20083;-71
2022/09/07 02:55:05;;;;;;;4.20;2.72;;;;;;;19.58;76.55;101238.69;4995761;28;20026;-71
2022/09/07 02:57:59;;;;;;;6.15;2.80;;;;;;;19.62;76.62;101248.25;4998244;28;20029;-68
2022/09/07 03:00:25;;;;;;;4.47;2.90;;;;;;;19.52;76.97;101252.59;4997506;28;20057;-67
2022/09/07 03:02:52;;;;;;;3.50;2.63;;;;;;;19.48;77.11;101245.66;4998363;28;20911;-68
2022/09/07 03:05:30;;;;;;;4.32;2.97;;;;;;;19.43;77.26;101242.19;4996188;28;20501;-67
2022/09/07 03:08:07;;;;;;;3.60;2.67;;;;;;;19.49;76.62;101229.13;4990256;28;20030;-67
2022/09/07 03:10:35;;;;;;;4.18;2.90;;;;;;;19.40;77.20;101236.97;4979111;28;20062;-67
2022/09/07 03:13:00;;;;;;;4.38;2.80;;;;;;;19.40;77.35;101244.78;4998186;28;20040;-67
2022/09/07 03:15:27;;;;;;;4.25;2.95;;;;;;;19.36;77.86;101247.44;4994717;28;20030;-67
2022/09/07 03:17:52;;;;;;;4.57;3.20;;;;;;;19.29;77.94;101247.44;4979447;28;20109;-67
2022/09/07 03:20:19;;;;;;;4.00;2.88;;;;;;;19.38;77.26;101248.28;4998468;28;20136;-67
2022/09/07 03:22:46;;;;;;;5.07;3.08;;;;;;;19.27;77.34;101249.16;4981287;28;21246;-67
2022/09/07 03:25:12;;;;;;;3.90;3.15;;;;;;;19.20;77.80;101257.00;4996662;28;20038;-67
2022/09/07 03:27:37;;;;;;;3.30;3.00;;;;;;;19.23;78.21;101246.56;4999044;28;20245;-67
2022/09/07 03:30:07;;;;;;;5.30;3.15;;;;;;;19.22;78.16;101235.25;4996501;28;20034;-67
2022/09/07 03:32:35;;;;;;;5.45;3.10;;;;;;;19.28;78.40;101243.06;4997238;28;20102;-67
2022/09/07 03:35:01;;;;;;;6.50;3.47;;;;;;;19.28;78.62;101247.41;4997267;28;20045;-67
2022/09/07 03:37:27;;;;;;;5.75;3.35;;;;;;;19.31;78.46;101247.44;4996485;28;20117;-67
2022/09/07 03:39:52;;;;;;;5.85;3.53;;;;;;;19.32;78.54;101245.69;4988948;28;20038;-68
2022/09/07 03:42:18;;;;;;;3.97;3.30;;;;;;;19.29;78.01;101234.41;4981353;28;20038;-68
2022/09/07 03:44:43;;;;;;;4.10;3.40;;;;;;;19.24;77.87;101233.53;4998147;28;20052;-68
2022/09/07 03:47:08;;;;;;;4.40;3.45;;;;;;;19.20;78.19;101236.16;4977970;28;20571;-68
2022/09/07 03:49:34;;;;;;;4.60;3.20;;;;;;;19.22;77.53;101235.25;4998325;28;20022;-68
2022/09/07 03:52:00;;;;;;;6.60;3.53;;;;;;;19.17;77.80;101237.03;4998555;28;20057;-68
2022/09/07 03:54:26;;;;;;;4.15;3.33;;;;;;;19.16;78.22;101235.25;4995580;28;20103;-68
2022/09/07 03:56:51;;;;;;;4.45;3.70;;;;;;;19.05;78.77;101251.78;4993966;28;20221;-68
2022/09/07 03:59:16;;;;;;;5.35;3.72;;;;;;;19.10;78.18;101248.31;4998156;28;20030;-67
2022/09/07 04:01:42;;;;;;;6.20;4.10;;;;;;;18.96;79.19;101242.25;4992940;28;20046;-71
2022/09/07 04:04:07;;;;;;;4.70;3.97;;;;;;;18.98;78.90;101241.34;4998461;28;20030;-71
2022/09/07 04:06:33;;;;;;;4.85;3.80;;;;;;;18.89;78.88;101235.31;4997576;28;20081;-71
2022/09/07 04:09:04;;;;;;;6.45;3.90;;;;;;;18.94;78.79;101218.81;4989379;28;20038;-71
2022/09/07 04:11:30;;;;;;;6.97;3.70;;;;;;;19.03;78.45;101217.91;4995814;28;20038;-71
2022/09/07 04:13:56;;;;;;;8.13;4.30;;;;;;;18.95;78.65;101220.53;4978015;28;20328;-71
2022/09/07 04:16:24;;;;;;;5.30;3.90;;;;;;;18.91;79.03;101218.78;4978567;28;20045;-71
2022/09/07 04:18:53;;;;;;;4.70;3.85;;;;;;;18.92;78.91;101214.44;4996143;28;20023;-71
2022/09/07 04:21:20;;;;;;;5.88;4.00;;;;;;;18.93;78.82;101211.84;4998611;28;20488;-71
2022/09/07 04:23:46;;;;;;;7.53;3.90;;;;;;;18.99;78.57;101197.97;4979001;28;20121;-71
2022/09/07 04:26:17;;;;;;;7.15;4.32;;;;;;;18.99;78.62;101204.03;4996462;28;20045;-71
2022/09/07 04:28:44;;;;;;;5.60;4.35;;;;;;;18.91;79.10;101202.28;4996810;28;20508;-71
2022/09/07 04:31:09;;;;;;;7.57;4.13;;;;;;;18.88;79.10;101191.88;4996970;28;20045;-71
2022/09/07 04:33:35;;;;;;;4.70;4.20;;;;;;;18.88;79.01;101189.28;4979540;28;20647;-71
2022/09/07 04:36:01;;;;;;;7.18;4.40;;;;;;;18.86;79.32;101204.03;4994809;28;20781;-71
2022/09/07 04:38:28;;;;;;;5.80;4.60;;;;;;;18.77;79.23;101217.06;4995946;28;20164;-70
2022/09/07 04:41:08;;;;;;;5.95;4.47;;;;;;;18.72;80.03;101217.94;4990017;28;20029;-71
2022/09/07 04:43:37;;;;;;;7.13;4.60;;;;;;;18.64;80.29;101214.44;5001930;28;20557;-72
2022/09/07 04:46:10;;;;;;;6.82;4.47;;;;;;;18.61;80.63;101219.63;5005210;28;20030;-72
2022/09/07 04:48:35;;;;;;;5.07;4.32;;;;;;;18.68;80.04;101221.38;4999323;28;20482;-72
2022/09/07 04:51:09;;;;;;;4.97;4.10;;;;;;;18.73;79.94;101219.66;5000779;28;20030;-72
2022/09/07 04:53:36;;;;;;;5.07;4.57;;;;;;;18.63;80.07;101210.09;4990151;28;20034;-71
2022/09/07 04:56:03;;;;;;;6.40;5.05;;;;;;;18.66;79.74;101206.59;4983153;28;20034;-72
2022/09/07 04:58:29;;;;;;;5.50;5.00;;;;;;;18.60;79.84;101211.81;4999800;28;20034;-70
2022/09/07 05:00:58;;;;;;;6.60;4.97;;;;;;;18.67;79.96;101206.63;4993328;28;20092;-71
2022/09/07 05:03:24;;;;;;;6.45;5.38;;;;;;;18.53;80.10;101205.72;4982134;28;20072;-71
2022/09/07 05:05:49;;;;;;;7.32;4.80;;;;;;;18.56;79.60;101205.72;5000908;28;20101;-71
2022/09/07 05:08:14;;;;;;;11.18;4.93;;;;;;;18.56;79.86;101208.31;4998762;28;20062;-70
2022/09/07 05:10:49;;;;;;;6.13;4.82;;;;;;;18.57;79.71;101212.69;5002869;28;20543;-71
2022/09/07 05:13:15;;;;;;;7.00;5.30;;;;;;;18.51;79.98;101217.91;4961859;28;20031;-71
2022/09/07 05:15:40;;;;;;;7.75;5.13;;;;;;;18.53;80.37;101223.09;4984288;28;20026;-71
2022/09/07 05:18:05;;;;;;;6.05;5.10;;;;;;;18.59;79.66;101218.75;4983112;28;20026;-67
2022/09/07 05:20:31;;;;;;;6.90;5.30;;;;;;;18.48;80.61;101210.94;4997585;28;20654;-66
2022/09/07 05:22:58;;;;;;;10.20;5.45;;;;;;;18.52;80.33;101218.75;5000711;28;20066;-66
2022/09/07 05:25:25;;;;;;;6.65;5.10;;;;;;;18.53;79.94;101215.28;5003949;28;20026;-67
2022/09/07 05:27:51;;;;;;;7.28;5.43;;;;;;;18.51;80.53;101223.09;5000439;28;20027;-66
2022/09/07 05:30:16;;;;;;;8.95;5.45;;;;;;;18.50;80.37;101221.34;5000835;28;20045;-68
2022/09/07 05:32:44;;;;;;;7.80;5.40;;;;;;;18.55;81.15;101229.16;5004674;28;20049;-69
2022/09/07 05:35:11;;;;;;;6.32;5.35;;;;;;;18.58;80.50;101226.59;4979992;28;20033;-68
2022/09/07 05:37:37;;;;;;;7.05;5.20;;;;;;;18.57;80.82;101228.31;5001829;28;20359;-68
2022/09/07 05:40:03;;;;;;;7.50;5.72;;;;;;;18.63;80.09;101227.47;5004653;28;20042;-68
2022/09/07 05:42:29;;;;;;;7.43;5.60;;;;;;;18.59;80.71;101221.38;4995045;28;20045;-68
2022/09/07 05:44:55;;;;;;;8.82;6.15;;;;;;;18.58;80.99;101216.16;5002433;28;20041;-68
2022/09/07 05:47:20;;;;;;;7.72;5.65;;;;;;;18.67;79.89;101224.88;5006269;28;20049;-68
2022/09/07 05:49:46;;;;;;;7.50;6.10;;;;;;;18.65;80.04;101231.78;5002802;28;20025;-68
2022/09/07 05:52:12;;;;;;;6.88;5.88;;;;;;;18.70;80.16;101232.69;5005116;28;20033;-68
2022/09/07 05:54:37;;;;;;;6.78;6.07;;;;;;;18.66;80.40;101228.31;4983653;28;20056;-69
2022/09/07 05:57:03;;;;;;;9.02;6.18;;;;;;;18.62;80.55;101236.13;5000305;28;20124;-68
2022/09/07 05:59:29;;;;;;;8.77;6.60;;;;;;;18.66;80.70;101230.91;5002791;28;20026;-69
2022/09/07 06:01:54;;;;;;;9.85;6.60;;;;;;;18.65;81.17;101230.91;5002292;28;20500;-68
2022/09/07 06:04:19;;;;;;;10.73;7.25;;;;;;;18.65;80.78;101239.59;4970175;28;20038;-69
2022/09/07 06:06:45;;;;;;;7.25;6.53;;;;;;;18.59;81.93;101242.19;4978199;28;20144;-69
2022/09/07 06:09:11;;;;;;;7.80;7.00;;;;;;;18.66;81.66;101245.69;4982998;28;20037;-69
2022/09/07 06:11:37;;;;;;;9.23;7.10;;;;;;;18.60;81.84;101249.13;5000258;28;20061;-69
2022/09/07 06:14:03;;;;;;;9.18;7.18;;;;;;;18.55;82.04;101250.00;4993734;28;20037;-69
2022/09/07 06:16:32;;;;;;;12.13;7.00;;;;;;;18.55;82.53;101250.88;5001822;28;20053;-68
2022/09/07 06:18:57;;;;;;;10.25;7.85;;;;;;;18.56;82.78;101257.81;4997641;28;20149;-69
2022/09/07 06:21:23;;;;;;;9.60;6.90;;;;;;;18.64;82.41;101250.88;4982596;28;20451;-69
2022/09/07 06:23:50;;;;;;;8.50;7.70;;;;;;;18.62;82.97;101255.22;5001103;28;20079;-69
2022/09/07 06:26:16;;;;;;;8.35;6.47;;;;;;;18.62;82.75;101251.75;5000392;28;20037;-69
2022/09/07 06:28:44;;;;;;;10.73;7.68;;;;;;;18.63;82.57;101258.72;5000980;28;20068;-69
2022/09/07 06:31:12;;;;;;;11.70;7.82;;;;;;;18.69;82.37;101259.63;4980303;28;20783;-68
2022/09/07 06:33:38;;;;;;;12.43;8.73;;;;;;;18.67;82.91;101260.47;5000372;28;20056;-69
2022/09/07 06:36:08;;;;;;;9.82;8.07;;;;;;;18.69;82.57;101256.16;4987459;28;20084;-69
2022/09/07 06:38:36;;;;;;;11.02;8.20;;;;;;;18.67;82.92;101263.06;4985706;28;20108;-69
2022/09/07 06:41:03;;;;;;;10.98;8.27;;;;;;;18.66;83.61;101261.31;4998903;28;20055;-69
2022/09/07 06:43:29;;;;;;;9.40;7.90;;;;;;;18.73;83.16;101258.72;5001736;28;20079;-68
2022/09/07 06:45:54;;;;;;;11.15;8.55;;;;;;;18.82;83.58;101259.63;4975946;28;20441;-69
2022/09/07 06:48:20;;;;;;;11.40;9.07;;;;;;;18.91;83.38;101270.03;5000141;28;20026;-69
2022/09/07 06:51:04;;;;;;;14.93;9.73;;;;;;;18.95;83.32;101266.56;5004595;28;20042;-68
2022/09/07 06:53:31;;;;;;;13.82;9.73;;;;;;;18.97;84.08;101265.69;5000108;28;20037;-67
2022/09/07 06:55:58;;;;;;;11.57;9.23;;;;;;;19.03;84.52;101270.03;4997255;28;20038;-67
2022/09/07 06:58:24;;;;;;;15.25;10.88;;;;;;;19.00;84.08;101262.22;4981894;28;20021;-67
2022/09/07 07:00:50;;;;;;;14.80;10.60;;;;;;;19.08;84.17;101273.50;4977686;28;20057;-67
2022/09/07 07:03:15;;;;;;;17.50;12.77;;;;;;;19.15;83.92;101259.59;4997367;28;20133;-67
2022/09/07 07:05:42;;;;;;;15.82;13.13;;;;;;;19.15;84.96;101267.41;4980576;28;20038;-68
2022/09/07 07:08:07;;;;;;;17.25;13.60;;;;;;;19.24;84.78;101274.38;4997613;28;20132;-68
2022/09/07 07:10:37;;;;;;;15.10;13.40;;;;;;;19.33;84.24;101252.63;4995469;28;20108;-68
2022/09/07 07:13:03;;;;;;;19.10;14.73;;;;;;;19.34;84.04;101259.56;4981597;28;20026;-67
2022/09/07 07:15:29;;;;;;;21.10;16.77;;;;;;;19.36;84.29;101269.16;4995248;28;20080;-68
2022/09/07 07:17:56;;;;;;;21.45;17.08;;;;;;;19.44;84.18;101266.53;4976461;28;20038;-67
2022/09/07 07:20:22;;;;;;;21.92;17.40;;;;;;;19.52;84.24;101265.63;4982914;28;20049;-68
2022/09/07 07:22:51;;;;;;;21.65;17.92;;;;;;;19.60;84.53;101270.88;4982118;28;20056;-65
2022/09/07 07:25:17;;;;;;;24.45;18.88;;;;;;;19.64;84.88;101253.47;4996181;28;20045;-66
2022/09/07 07:27:44;;;;;;;26.50;21.65;;;;;;;19.69;84.10;101263.00;4994507;28;20026;-66
2022/09/07 07:30:11;;;;;;;26.65;20.85;;;;;;;19.73;83.92;101269.09;4996336;28;20080;-66
2022/09/07 07:32:37;;;;;;;25.77;19.52;;;;;;;19.79;84.54;101269.94;4991501;28;20041;-66
2022/09/07 07:35:02;;;;;;;25.77;20.65;;;;;;;19.80;84.07;101271.69;4996786;28;20034;-66
2022/09/07 07:37:28;;;;;;;24.02;20.38;;;;;;;19.88;84.48;101283.81;4996363;28;21335;-66
2022/09/07 07:39:53;;;;;;;24.08;19.70;;;;;;;19.92;83.42;101288.16;5000210;28;20034;-66
2022/09/07 07:42:19;;;;;;;23.85;19.10;;;;;;;19.89;82.21;101285.56;4994554;28;20616;-66
2022/09/07 07:44:44;;;;;;;21.35;19.13;;;;;;;19.90;83.31;101292.50;4982946;28;20492;-66
2022/09/07 07:47:09;;;;;;;22.52;19.17;;;;;;;19.90;83.52;101293.41;4973612;28;20077;-66
2022/09/07 07:49:35;;;;;;;26.90;19.88;;;;;;;19.93;83.96;101287.28;4992854;28;20037;-66
2022/09/07 07:52:01;;;;;;;23.67;18.88;;;;;;;20.01;83.38;101290.72;4995163;28;20610;-66
2022/09/07 07:54:26;;;;;;;22.45;18.70;;;;;;;20.01;83.30;101295.94;4997297;28;20045;-66
2022/09/07 07:56:52;;;;;;;21.48;18.88;;;;;;;20.06;81.45;101292.44;4996659;28;20722;-66
2022/09/07 07:59:17;;;;;;;24.13;19.27;;;;;;;20.06;82.27;101291.59;4994820;28;20034;-66
2022/09/07 08:01:42;;;;;;;23.73;18.83;;;;;;;20.12;82.75;101296.78;4998141;28;20113;-66
2022/09/07 08:04:08;;;;;;;26.27;19.27;;;;;;;20.11;82.63;101304.63;4996519;28;20116;-66
2022/09/07 08:06:33;;;;;;;24.88;19.27;;;;;;;20.11;82.54;101305.47;4956261;28;20065;-66
2022/09/07 08:08:59;;;;;;;24.45;18.80;;;;;;;20.18;81.93;101306.31;4996892;28;20116;-66
2022/09/07 08:11:25;;;;;;;23.50;19.38;;;;;;;20.24;82.58;101311.53;4991897;28;20030;-67
2022/09/07 08:13:51;;;;;;;22.67;19.73;;;;;;;20.27;81.99;101312.38;4995364;28;20099;-67
2022/09/07 08:16:17;;;;;;;20.05;17.88;;;;;;;20.40;82.62;101304.50;4984190;28;20041;-66
2022/09/07 08:18:43;;;;;;;21.20;18.67;;;;;;;20.50;82.29;101307.06;4974236;28;20030;-66
2022/09/07 08:21:14;;;;;;;21.52;17.75;;;;;;;20.58;83.34;101309.66;5003201;28;20444;-67
2022/09/07 08:23:40;;;;;;;22.23;17.90;;;;;;;20.69;82.07;101310.44;4995760;28;20527;-67
2022/09/07 08:26:06;;;;;;;20.25;17.33;;;;;;;20.72;80.04;101318.25;4992719;28;20065;-66
2022/09/07 08:28:35;;;;;;;21.40;17.92;;;;;;;20.78;80.92;101312.97;5000243;28;20057;-67
2022/09/07 08:31:05;;;;;;;20.90;17.60;;;;;;;20.79;80.00;101319.06;4999649;28;20030;-66
2022/09/07 08:33:31;;;;;;;19.55;16.55;;;;;;;20.85;79.33;101314.66;4998428;28;20034;-67
2022/09/07 08:36:01;;;;;;;20.20;16.08;;;;;;;20.95;79.08;101319.84;4998671;28;20112;-67
2022/09/07 08:38:31;;;;;;;20.00;15.48;;;;;;;21.02;80.00;101318.91;4990593;28;20041;-66
2022/09/07 08:40:57;;;;;;;18.20;15.98;;;;;;;21.03;78.61;101324.13;4979431;28;20750;-67
2022/09/07 08:43:45;;;;;;;18.35;16.40;;;;;;;21.15;78.43;101323.16;4978507;28;20046;-66
2022/09/07 08:46:26;;;;;;;18.42;15.20;;;;;;;21.20;77.93;101324.00;4997559;28;20036;-67
2022/09/07 08:48:54;;;;;;;20.45;16.30;;;;;;;21.31;77.69;101324.81;4990374;28;20085;-67
2022/09/07 08:51:33;;;;;;;19.10;16.48;;;;;;;21.35;78.92;101329.09;4995603;28;20046;-67
2022/09/07 08:53:58;;;;;;;;;;;;;;;21.52;77.76;101325.47;4970319;28;20042;-67
2022/09/07 08:56:40;;;;;;;18.23;15.25;;;;;;;21.56;78.94;101320.22;4997171;28;19926;-67
2022/09/07 08:59:20;;;;;;;20.90;15.07;;;;;;;21.65;78.15;101324.47;4995166;28;20037;-67
2022/09/07 09:01:46;;;;;;;17.35;14.30;;;;;;;21.66;77.43;101326.22;4986712;28;20555;-67
2022/09/07 09:04:29;;;;;;;18.63;15.27;;;;;;;21.65;76.58;101319.22;5003372;28;20045;-67
2022/09/07 09:07:19;;;;;;;17.60;14.82;;;;;;;21.79;76.85;101324.34;4998846;28;20093;-66
2022/09/07 09:10:20;;;;;;;16.42;14.43;;;;;;;21.88;76.13;101330.31;4998640;28;20034;-66
2022/09/07 09:13:30;;;;;;;17.60;14.38;;;;;;;21.92;75.77;101326.81;4999330;28;20033;-67
2022/09/07 09:16:11;;;;;;;15.90;13.93;;;;;;;22.02;75.42;101329.28;4955729;28;20046;-67
2022/09/07 09:19:05;;;;;;;17.05;13.40;;;;;;;22.10;75.79;101332.75;4986690;28;20153;-66
2022/09/07 09:21:32;;;;;;;18.05;13.45;;;;;;;22.15;75.00;101320.47;4998983;28;20069;-66
2022/09/07 09:24:09;;;;;;;15.68;12.88;;;;;;;22.23;74.35;101320.34;5001074;28;20103;-66
2022/09/07 09:26:36;;;;;;;16.90;13.57;;;;;;;22.19;75.10;101316.91;4996741;28;20057;-67
2022/09/07 09:29:11;;;;;;;16.42;11.73;;;;;;;22.32;73.38;101328.94;4979988;28;20104;-67
2022/09/07 09:31:37;;;;;;;13.48;11.43;;;;;;;22.32;72.81;101323.69;4978879;28;20033;-67
2022/09/07 09:34:12;;;;;;;14.07;10.80;;;;;;;22.40;74.35;101318.38;4995126;28;20594;-67
2022/09/07 09:36:53;;;;;;;13.40;10.70;;;;;;;22.48;73.72;101319.13;4993873;28;20033;-66
2022/09/07 09:39:38;;;;;;;14.73;11.05;;;;;;;22.57;73.35;101324.25;4994711;28;20394;-66
2022/09/07 09:42:10;;;;;;;13.70;9.98;;;;;;;22.62;71.62;101327.66;4961932;28;20045;-66
2022/09/07 09:44:37;;;;;;;11.18;9.35;;;;;;;22.67;71.27;101325.84;5000236;28;20466;-67
2022/09/07 09:47:03;;;;;;;11.70;7.47;;;;;;;22.74;71.29;101327.47;4997510;28;20046;-67
2022/09/07 09:49:36;;;;;;;10.00;6.80;;;;;;;22.81;70.26;101325.63;4991123;28;20080;-67
2022/09/07 09:52:04;;;;;;;8.85;7.28;;;;;;;22.86;68.21;101330.81;4983357;28;20152;-67
2022/09/07 09:54:42;;;;;;;9.50;6.93;;;;;;;22.97;70.59;101319.31;4980404;28;20109;-66
2022/09/07 09:57:15;;;;;;;8.77;5.80;;;;;;;23.07;69.01;101314.78;4995459;28;20116;-66
2022/09/07 09:59:40;;;;;;;11.05;6.13;;;;;;;23.09;68.84;101305.13;4995279;28;20484;-67
2022/09/07 10:02:26;;;;;;;7.78;5.50;;;;;;;23.22;70.07;101308.41;4996968;28;20145;-66
2022/09/07 10:04:51;;;;;;;8.38;5.10;;;;;;;23.29;67.73;101320.50;4995282;28;20021;-66
2022/09/07 10:07:26;;;;;;;11.20;4.28;;;;;;;23.41;66.58;101308.94;4996246;28;20152;-67
2022/09/07 10:09:55;;;;;;;8.18;3.70;;;;;;;23.40;65.66;101313.31;4993261;28;20041;-66
2022/09/07 10:12:23;;;;;;;9.02;3.83;;;;;;;23.45;63.46;101311.50;4993892;28;20560;-66
2022/09/07 10:14:49;;;;;;;9.68;3.35;;;;;;;23.42;63.69;101306.31;4995440;28;20033;-66
2022/09/07 10:17:32;;;;;;;7.55;3.20;;;;;;;23.33;64.84;101305.59;4976393;28;20045;-66
2022/09/07 10:20:01;;;;;;;10.15;3.80;;;;;;;23.35;64.54;101312.53;4997362;28;20041;-66
2022/09/07 10:22:36;;;;;;;7.97;3.47;;;;;;;23.49;64.69;101301.81;4990915;28;20022;-67
2022/09/07 10:25:23;;;;;;;8.27;3.70;;;;;;;23.59;66.23;101292.00;4979096;28;20038;-66
2022/09/07 10:28:01;;;;;;;8.90;3.67;;;;;;;23.69;64.55;101309.34;4997898;28;20040;-65
2022/09/07 10:30:31;;;;;;;8.40;3.33;;;;;;;23.79;62.04;101303.03;4980065;28;20140;-66
2022/09/07 10:33:03;;;;;;;6.03;2.63;;;;;;;23.98;61.11;101300.91;4997280;28;20317;-67
2022/09/07 10:35:33;;;;;;;7.13;2.50;;;;;;;24.14;59.67;101306.69;4997232;28;20065;-67
2022/09/07 10:38:19;;;;;;;9.95;2.50;;;;;;;24.35;61.46;101308.91;4996218;28;20034;-66
2022/09/07 10:41:08;;;;;;;5.93;2.10;;;;;;;24.58;61.26;101292.59;4993120;28;20030;-67
2022/09/07 10:43:46;;;;;;;9.10;2.70;;;;;;;24.77;59.14;101296.53;4978045;28;20159;-66
2022/09/07 10:46:32;;;;;;;5.75;2.20;;;;;;;24.96;59.19;101289.06;4998305;28;20022;-66
2022/09/07 10:49:14;;;;;;;7.55;2.30;;;;;;;25.16;57.48;101285.94;4997226;28;20049;-66
2022/09/07 10:51:50;;;;;;;6.20;2.20;;;;;;;25.36;56.65;101277.50;4988288;28;20034;-73
2022/09/07 10:54:20;;;;;;;9.32;2.42;;;;;;;25.49;54.76;101281.56;4992881;28;20030;-73
2022/09/07 10:57:16;;;;;;;5.53;2.00;;;;;;;25.66;55.30;101275.81;4976573;28;20026;-73
2022/09/07 10:59:47;;;;;;;6.85;2.33;;;;;;;25.75;54.75;101277.38;4976866;28;20499;-73
2022/09/07 11:02:28;;;;;;;5.43;2.20;;;;;;;25.76;55.70;101277.31;4996209;28;20101;-72
2022/09/07 11:05:03;;;;;;;7.68;2.20;;;;;;;26.01;55.21;101274.84;4994711;28;20124;-72
2022/09/07 11:08:05;;;;;;;6.80;2.38;;;;;;;26.29;56.12;101284.56;4995275;28;20046;-71
2022/09/07 11:10:44;;;;;;;9.48;2.30;;;;;;;26.37;53.79;101282.56;4993314;28;20046;-72
2022/09/07 11:13:15;;;;;;;8.95;2.70;;;;;;;26.29;52.94;101282.78;4994569;28;20068;-72
2022/09/07 11:16:01;;;;;;;9.02;2.20;;;;;;;26.26;54.51;101280.25;4993556;28;20038;-73
2022/09/07 11:18:37;;;;;;;6.82;2.10;;;;;;;26.37;51.96;101290.47;4977068;28;20026;-72
2022/09/07 11:21:11;;;;;;;8.70;2.10;;;;;;;26.27;50.62;101278.47;4996765;28;20270;-73
2022/09/07 11:23:56;;;;;;;5.95;1.98;;;;;;;26.53;51.36;101280.34;4987125;28;20029;-72
2022/09/07 11:26:50;;;;;;;7.68;2.13;;;;;;;26.61;52.13;101271.25;4996048;28;20045;-72
2022/09/07 11:29:24;;;;;;;7.03;2.10;;;;;;;26.38;50.96;101271.94;4998369;28;20029;-73
2022/09/07 11:31:54;;;;;;;10.45;2.30;;;;;;;26.28;52.13;101278.44;4993162;28;20030;-72
2022/09/07 11:34:34;;;;;;;9.75;2.33;;;;;;;26.14;52.05;101270.94;4979170;28;20057;-71
2022/09/07 11:37:08;;;;;;;5.95;1.88;;;;;;;26.23;52.69;101277.72;4976756;28;20029;-72
2022/09/07 11:39:42;;;;;;;10.50;1.55;;;;;;;26.73;52.17;101272.66;4990117;28;20029;-72